Date,TemperatureHighF,TemperatureAvgF,TemperatureLowF,DewpointHighF,DewpointAvgF,DewpointLowF,HumidityHigh,HumidityAvg,HumidityLow,PressureMaxIn,PressureMinIn,WindSpeedMaxMPH,WindSpeedAvgMPH,GustSpeedMaxMPH,PrecipitationSumIn
2013-2-6,37,31,21,24,14,2,68,50,37,30.42,30.11,2,0,8,0.03
2013-2-7,33,22,11,14,8,4,84,55,31,30.60,30.42,1,0,6,0.01
2013-2-8,29,26,20,27,21,10,94,82,50,30.49,29.70,9,2,22,0.01
2013-2-9,25,20,14,23,19,11,95,93,86,30.35,29.77,5,1,18,0.00
2013-2-10,41,20,-4,26,10,-7,89,71,23,30.52,30.35,2,0,8,0.12
2013-2-11,40,30,12,39,28,8,98,92,83,30.42,29.72,2,0,4,0.10
2013-2-12,45,36,31,36,29,24,98,75,47,30.01,29.75,4,0,13,0.10
2013-2-13,45,35,29,29,25,22,90,70,40,30.00,29.79,2,0,6,0.02
2013-2-14,45,32,20,29,24,19,95,75,39,30.07,29.81,3,0,8,0.02
2013-2-15,51,35,22,34,28,20,96,78,46,30.07,29.98,3,0,10,0.01
2013-2-16,39,33,28,31,24,17,94,71,44,30.05,29.81,3,0,7,0.08
2013-2-17,29,22,14,21,6,1,74,48,33,29.92,29.63,6,2,22,0.01
2013-2-18,32,20,12,12,4,0,77,51,28,30.27,29.92,4,1,14,0.00
2013-2-19,44,32,16,38,25,8,97,78,47,30.26,29.69,2,0,8,0.22
2013-2-20,37,29,21,34,16,7,90,59,41,29.96,29.69,4,1,13,0.15
2013-2-21,31,24,20,15,12,9,71,61,48,30.35,29.94,4,1,16,0.00
2013-2-22,40,28,15,26,19,12,90,69,47,30.48,30.35,2,0,5,0.00
2013-2-23,37,33,30,35,30,25,96,91,83,30.38,29.94,2,0,5,0.16
2013-2-24,40,35,32,36,32,26,96,89,74,29.99,29.80,3,1,10,0.07
2013-2-25,45,34,27,30,26,24,93,74,49,30.33,29.99,3,0,8,0.01
2013-2-26,44,33,24,29,27,23,95,77,53,30.40,30.16,1,0,6,0.03
2013-2-27,41,37,32,40,36,30,97,95,87,30.16,29.66,5,1,13,1.47
2013-2-28,48,36,31,40,34,30,98,93,74,29.71,29.62,2,0,5,0.07
2013-3-1,45,37,34,34,30,27,97,77,53,29.82,29.64,3,0,8,0.01
2013-3-2,38,34,29,28,26,23,81,73,59,29.83,29.74,3,0,8,0.00
2013-3-3,34,29,26,25,22,18,80,73,59,29.78,29.72,3,1,13,0.00
2013-3-4,38,30,26,24,21,18,77,68,53,29.91,29.77,4,1,15,0.00
2013-3-5,48,36,28,31,25,20,85,66,42,30.13,29.91,4,1,10,0.00
2013-3-6,40,36,34,35,30,27,88,78,66,30.11,30.04,9,3,16,0.01
2013-3-7,36,33,30,32,30,27,95,88,71,30.13,30.05,7,2,15,0.06
2013-3-8,40,34,30,34,29,25,95,84,60,30.25,30.03,3,0,11,0.27
2013-3-9,56,39,27,28,22,8,91,56,15,30.42,30.24,6,1,10,0.04
2013-3-10,53,36,20,34,28,19,96,75,42,30.48,30.37,2,0,6,0.01
2013-3-11,52,42,35,42,37,31,95,82,62,30.40,30.20,4,1,10,0.00
2013-3-12,52,46,39,51,45,35,98,96,88,30.20,29.78,3,0,12,1.14
2013-3-13,49,38,27,35,28,24,97,72,38,29.93,29.84,3,1,12,0.37
2013-3-14,34,29,27,28,17,11,92,62,42,29.96,29.89,4,1,19,0.00
2013-3-15,43,31,23,29,18,11,92,60,33,30.00,29.78,4,1,14,0.01
2013-3-16,39,33,25,28,20,11,84,60,34,29.97,29.81,3,0,7,0.01
2013-3-17,36,29,22,21,13,6,83,53,29,30.39,29.97,4,1,12,0.00
2013-3-18,37,27,15,26,10,4,93,53,25,30.52,30.21,3,0,8,0.00
2013-3-19,36,31,28,33,29,26,97,93,88,30.21,29.74,4,1,11,0.19
2013-3-20,41,30,19,28,20,15,95,69,36,29.90,29.82,3,1,14,0.13
2013-3-21,39,30,22,23,18,11,90,63,34,29.91,29.69,3,0,8,0.01
2013-3-22,40,32,19,24,18,11,78,57,42,29.90,29.76,4,1,11,0.01
2013-3-23,45,35,26,25,21,17,83,58,34,29.95,29.82,5,1,16,0.00
2013-3-24,46,35,22,26,22,19,90,60,40,29.98,29.80,5,1,12,0.00
2013-3-25,45,38,32,28,25,22,69,60,46,29.84,29.55,5,2,14,0.00
2013-3-26,49,38,26,30,26,20,82,63,33,29.91,29.65,3,0,15,0.00
2013-3-27,54,41,25,28,24,21,88,55,30,30.00,29.89,4,1,12,0.00
2013-3-28,50,42,35,34,31,27,82,65,48,30.15,29.99,3,1,10,0.00
2013-3-29,56,45,34,33,30,27,78,56,36,30.17,30.10,4,1,12,0.00
2013-3-30,57,43,28,31,26,20,92,57,24,30.21,30.13,4,1,9,0.00
2013-3-31,57,41,24,41,28,-100,93,66,29,30.22,29.76,5,1,14,0.18
2013-4-1,61,44,32,45,36,15,97,76,45,29.95,29.65,5,1,13,0.25
2013-4-2,41,32,22,21,14,8,87,50,28,30.09,29.95,4,1,15,0.01
2013-4-3,45,34,24,17,14,11,74,44,27,30.33,30.09,5,1,14,0.00
2013-4-4,56,39,21,29,19,12,84,49,21,30.44,30.15,4,1,12,0.00
2013-4-5,63,46,36,31,25,19,78,48,20,30.15,29.78,4,1,19,0.00
2013-4-6,50,38,28,24,14,6,66,41,19,30.40,30.03,5,1,11,0.00
2013-4-7,57,42,26,41,29,17,86,63,39,30.40,30.10,7,2,20,0.00
2013-4-8,71,52,33,43,38,32,97,65,28,30.16,30.06,2,0,7,0.00
2013-4-9,72,51,44,52,45,41,97,81,45,30.11,29.96,4,0,13,0.01
2013-4-10,66,55,46,53,48,42,97,80,57,30.06,29.92,2,0,8,0.45
2013-4-11,58,50,40,49,41,24,97,73,34,30.20,29.91,4,1,11,0.20
2013-4-12,41,38,36,37,35,32,95,89,73,30.21,29.86,4,1,11,0.40
2013-4-13,53,43,35,41,36,33,95,76,47,30.02,29.84,3,0,9,0.11
2013-4-14,53,41,30,37,31,26,97,72,39,30.32,30.02,4,1,13,0.00
2013-4-15,60,43,29,36,30,26,92,64,35,30.48,30.32,4,0,9,0.00
2013-4-16,66,49,32,51,42,30,93,78,49,30.48,30.19,5,1,16,0.00
2013-4-17,68,56,43,52,39,32,91,57,28,30.41,30.19,3,1,8,0.00
2013-4-18,62,49,34,46,36,31,94,65,31,30.47,30.23,5,1,14,0.00
2013-4-19,71,60,51,62,56,46,98,88,72,30.23,29.76,8,2,16,0.00
2013-4-20,63,51,40,61,37,25,96,64,31,30.37,29.74,3,1,14,0.35
2013-4-21,54,41,32,30,22,17,80,48,25,30.73,30.37,5,1,12,0.03
2013-4-22,60,44,29,32,28,24,94,58,28,30.80,30.62,3,1,9,0.00
2013-4-23,44,40,36,38,34,28,86,77,66,30.64,30.21,5,2,12,0.00
2013-4-24,75,55,41,48,43,37,88,68,34,30.21,29.91,4,1,12,0.00
2013-4-25,62,52,36,51,35,23,95,58,24,30.37,29.95,5,1,13,0.03
2013-4-26,70,49,29,35,30,23,92,55,24,30.51,30.37,2,0,7,0.03
2013-4-27,70,52,31,40,33,27,88,53,27,30.52,30.37,4,1,8,0.00
2013-4-28,73,54,34,42,35,-100,94,58,29,30.42,30.30,3,0,11,0.00
2013-4-29,63,53,44,47,39,30,84,60,36,30.36,30.31,3,0,8,0.00
2013-4-30,73,54,39,42,34,27,93,54,20,30.45,30.34,2,0,8,0.00
2013-5-1,75,53,32,45,36,29,91,58,26,30.58,30.44,3,0,7,0.00
2013-5-2,81,59,36,45,40,34,95,57,22,30.55,30.38,2,0,7,0.00
2013-5-3,71,56,45,44,38,31,88,52,30,30.58,30.43,4,1,10,0.00
2013-5-4,74,53,37,46,40,36,98,67,26,30.48,30.31,5,0,10,0.00
2013-5-5,69,49,31,44,37,30,97,68,32,30.41,30.29,3,0,9,0.00
2013-5-6,76,55,36,51,44,34,95,71,37,30.39,30.23,2,0,10,0.00
2013-5-7,83,59,40,57,49,39,98,74,33,30.28,30.19,2,0,6,0.00
2013-5-8,70,60,51,62,57,50,97,91,72,30.26,30.12,1,0,7,0.43
2013-5-9,65,57,51,61,55,50,98,95,81,30.14,29.98,1,0,3,0.46
2013-5-10,83,62,45,63,50,-100,99,74,38,30.08,30.01,2,0,9,0.30
2013-5-11,65,60,56,62,59,54,98,95,87,30.01,29.78,2,0,7,0.32
2013-5-12,71,58,43,59,47,-100,98,73,41,29.97,29.72,3,0,13,0.19
2013-5-13,58,44,33,35,31,27,97,64,33,30.17,29.97,2,0,11,0.02
2013-5-14,60,46,34,36,31,27,90,58,30,30.17,30.09,2,0,7,0.00
2013-5-15,63,47,30,53,41,29,97,81,44,30.17,29.79,2,0,10,0.02
2013-5-16,83,55,41,54,21,-100,98,60,21,29.92,29.78,4,1,11,0.01
2013-5-17,71,57,45,47,35,-100,87,58,32,30.30,29.92,4,1,8,0.00
2013-5-18,75,56,38,50,44,37,97,70,32,30.41,30.30,2,0,9,0.00
2013-5-19,59,53,45,56,52,43,98,94,85,30.45,30.30,0,0,3,0.22
2013-5-20,85,67,55,68,60,54,98,82,51,30.29,30.03,2,0,6,0.13
2013-5-21,92,73,56,71,64,55,99,78,42,30.07,29.90,2,0,6,0.01
2013-5-23,65,65,64,64,64,63,98,98,97,29.93,29.88,0,0,4,1.82
2013-5-24,66,57,44,65,55,42,98,93,81,29.98,29.75,2,0,9,0.87
2013-5-25,47,44,43,45,42,39,96,92,85,29.98,29.91,3,1,16,0.85
2013-5-26,60,50,42,45,41,39,94,72,48,30.25,29.93,4,1,16,0.02
2013-5-27,74,56,40,50,40,35,96,61,26,30.29,30.19,3,1,11,0.00
2013-5-28,74,56,41,56,48,39,97,79,38,30.32,30.25,1,0,4,0.02
2013-5-29,83,67,56,70,62,55,98,86,61,30.26,30.08,3,0,9,1.29
2013-5-30,91,74,59,73,66,58,99,80,44,30.21,30.13,2,0,8,1.06
2013-5-31,96,77,62,72,65,58,99,73,29,30.22,30.07,1,0,8,0.00
2013-6-1,94,76,61,72,66,60,98,74,39,30.10,29.99,2,0,7,0.00
2013-6-2,90,74,62,73,66,-100,98,80,54,30.01,29.84,2,0,10,0.00
2013-6-3,80,69,60,70,64,46,98,85,58,29.96,29.89,2,0,7,1.00
2013-6-4,72,60,48,53,45,40,91,60,38,30.20,29.96,4,1,13,0.10
2013-6-5,78,62,46,54,48,43,95,65,34,30.31,30.20,1,0,6,0.00
2013-6-6,73,58,45,60,52,44,98,82,54,30.28,30.16,1,0,6,0.16
2013-6-7,59,56,54,58,55,52,98,97,96,30.16,29.83,2,0,8,2.59
2013-6-8,78,63,52,65,58,51,98,85,59,30.14,29.72,3,1,9,1.58
2013-6-9,82,67,53,63,57,52,98,74,42,30.28,30.14,1,0,5,0.03
2013-6-10,70,61,53,64,59,52,98,92,76,30.28,30.03,1,0,3,1.22
2013-6-11,75,64,58,69,62,57,98,95,77,30.03,29.66,2,0,5,2.60
2013-6-12,72,64,53,60,54,51,94,73,51,29.95,29.74,5,1,15,0.02
2013-6-13,58,54,48,57,53,47,98,97,95,29.93,29.70,2,0,8,2.08
2013-6-14,75,59,50,62,54,49,98,84,46,29.92,29.69,2,0,8,2.19
2013-6-15,79,65,52,56,52,45,98,69,33,30.07,29.93,2,0,8,0.01
2013-6-16,77,65,48,64,56,47,98,77,50,30.08,29.83,1,0,5,0.01
2013-6-17,88,69,55,66,60,54,99,77,41,30.03,29.90,5,0,12,0.01
2013-6-18,82,65,56,69,61,55,98,88,60,30.03,29.91,2,0,6,0.14
2013-6-19,77,62,50,58,52,44,99,73,38,30.27,30.01,2,0,6,0.14
2013-6-20,83,60,44,59,49,43,98,75,34,30.37,30.27,1,0,4,0.00
2013-6-22,87,78,64,64,62,59,87,61,41,30.33,30.22,2,0,7,0.00
2013-6-23,93,75,59,71,64,56,93,73,37,30.27,30.14,2,0,8,0.00
2013-6-24,93,74,67,73,68,63,98,83,50,30.16,30.03,1,0,7,0.00
2013-6-25,93,75,63,74,69,62,99,85,49,30.08,29.87,3,0,16,0.20
2013-6-26,85,73,67,74,70,66,99,90,64,29.94,29.85,1,0,5,0.14
2013-6-27,82,70,63,73,68,62,99,93,73,29.93,29.75,1,0,4,0.52
2013-6-28,86,74,68,74,71,67,99,90,64,29.75,29.57,2,0,5,0.89
2013-6-29,87,74,64,72,68,63,99,84,53,29.81,29.59,2,0,5,0.01
2013-6-30,87,75,67,76,71,66,97,88,67,30.03,29.81,2,0,6,0.06
2013-7-1,75,72,71,74,71,70,99,97,94,30.16,30.03,0,0,3,0.74
2013-7-2,84,75,71,75,72,70,99,92,72,30.28,30.16,1,0,6,0.01
2013-7-3,88,77,69,76,72,68,98,85,63,30.33,30.26,2,0,5,0.00
2013-7-4,92,81,71,76,74,70,99,79,57,30.33,30.23,1,0,5,0.00
2013-7-5,95,80,70,77,72,69,98,80,52,30.29,30.17,1,0,8,0.00
2013-7-6,94,79,70,77,73,69,98,82,50,30.21,30.11,2,0,5,0.00
2013-7-7,97,80,69,80,74,68,99,84,48,30.15,30.01,1,0,5,0.00
2013-7-8,91,76,66,74,67,-100,98,80,49,30.14,30.02,2,0,8,0.00
2013-7-9,85,73,64,74,69,63,98,88,64,30.19,30.11,1,0,3,0.00
2013-7-10,86,74,72,78,70,-100,98,92,74,30.13,29.90,0,0,6,2.49
2013-7-11,83,74,67,74,70,65,99,90,66,30.03,29.89,1,0,3,0.02
2013-7-12,82,71,66,70,63,59,94,76,62,30.26,30.03,2,0,6,0.01
2013-7-13,77,70,64,74,67,59,97,89,69,30.40,30.26,1,0,4,0.17
2013-7-14,92,80,71,78,74,70,99,84,55,30.42,30.32,2,0,7,0.14
2013-7-15,91,77,68,77,72,67,99,84,52,30.33,30.23,2,0,9,0.00
2013-7-16,93,79,68,77,70,66,95,76,45,30.29,30.22,2,0,5,0.00
2013-7-17,96,77,66,77,70,65,99,83,47,30.29,30.15,1,0,2,0.00
2013-7-18,96,81,72,80,74,70,95,81,48,30.15,30.06,1,0,7,0.00
2013-7-19,96,83,73,78,74,72,98,77,51,30.06,29.86,1,0,10,0.00
2013-7-20,94,83,68,77,72,64,95,72,53,29.93,29.79,2,0,7,0.00
2013-7-21,89,75,66,70,66,62,95,76,44,30.08,29.94,1,0,3,0.01
2013-7-22,86,71,61,74,67,60,98,89,63,30.09,29.94,1,0,5,0.01
2013-7-23,91,76,71,75,72,69,98,90,55,29.93,29.66,1,0,8,1.30
2013-7-24,80,73,64,71,66,56,99,81,62,30.03,29.70,3,0,8,0.01
2013-7-25,65,60,57,60,55,49,96,82,72,30.19,30.04,2,0,8,0.06
2013-7-26,78,65,59,68,62,58,97,91,60,30.15,30.08,1,0,3,0.29
2013-7-27,86,71,57,68,63,56,99,78,46,30.15,30.08,1,0,5,0.02
2013-7-28,82,70,60,71,65,59,99,87,64,30.11,30.04,1,0,3,0.00
2013-7-29,88,73,60,71,66,57,99,81,46,30.17,30.07,1,0,6,0.00
2013-7-30,81,67,54,63,58,53,98,75,48,30.24,30.17,2,0,8,0.00
2013-7-31,84,68,54,67,60,53,99,79,45,30.25,30.14,2,0,4,0.00
2013-8-1,78,65,58,69,63,57,99,94,67,30.15,29.95,2,0,8,0.44
2013-8-2,82,70,61,66,64,61,99,83,50,29.99,29.89,2,0,7,0.56
2013-8-3,82,68,60,67,63,59,98,84,53,29.99,29.91,1,0,4,0.01
2013-8-4,80,66,56,63,57,53,97,75,49,30.04,29.92,2,0,8,0.00
2013-8-5,76,63,53,58,52,46,93,70,40,30.15,30.02,3,0,10,0.00
2013-8-6,84,62,46,60,54,45,99,78,40,30.24,30.15,2,0,8,0.00
2013-8-7,81,66,53,65,59,52,99,82,51,30.28,30.19,1,0,7,0.00
2013-8-8,83,73,68,74,69,64,97,88,72,30.20,30.11,1,0,4,0.04
2013-8-9,79,73,70,75,72,69,98,95,87,30.12,29.88,1,0,5,1.86
2013-8-10,83,71,56,70,63,54,99,79,51,30.15,29.93,3,0,8,0.08
2013-8-11,82,65,52,65,56,50,97,77,42,30.21,30.12,1,0,6,0.00
2013-8-12,85,66,58,66,60,57,99,84,44,30.14,30.03,1,0,3,0.00
2013-8-13,74,66,61,70,63,-100,99,93,80,30.04,29.79,1,0,4,0.14
2013-8-14,72,61,52,63,51,-100,98,75,53,30.11,29.82,3,1,13,0.05
2013-8-15,77,58,51,60,42,-100,96,73,41,30.24,30.11,2,0,7,0.00
2013-8-16,81,61,48,62,50,-100,99,77,41,30.31,30.22,1,0,4,0.00
2013-8-17,83,65,51,65,57,50,99,80,38,30.38,30.31,1,0,3,0.00
2013-8-18,77,64,56,68,60,-100,98,87,64,30.37,30.22,1,0,2,0.00
2013-8-19,71,65,59,67,63,58,97,94,84,30.22,30.11,0,0,0,0.00
2013-8-20,85,70,57,70,61,-100,99,79,48,30.21,30.12,2,0,7,0.01
2013-8-21,83,72,67,69,66,65,93,83,56,30.18,30.16,0,0,2,0.00
2013-8-22,78,71,67,71,68,66,98,91,79,29.98,29.96,0,0,3,0.02
2013-8-23,82,71,61,69,62,54,96,73,43,30.22,29.96,2,0,7,0.01
2013-8-24,79,63,50,57,52,48,94,71,38,30.45,30.22,2,0,6,0.00
2013-8-25,85,63,47,63,51,-100,99,73,35,30.48,30.32,1,0,4,0.00
2013-8-26,74,67,59,68,63,57,98,87,72,30.31,30.00,1,0,5,0.45
2013-8-27,84,72,67,75,69,66,99,91,64,30.01,29.91,1,0,4,1.12
2013-8-28,89,77,65,74,68,64,97,76,54,30.02,29.93,1,0,7,0.01
2013-8-29,77,70,65,68,66,62,98,87,69,30.15,30.01,2,0,6,0.01
2013-8-30,85,71,64,71,66,62,97,86,59,30.13,29.95,1,0,5,0.00
2013-8-31,79,73,67,77,71,66,98,94,84,29.95,29.88,1,0,4,0.13
2013-9-1,81,73,68,76,70,-100,99,93,81,29.96,29.91,0,0,4,0.22
2013-9-2,77,72,67,74,71,66,99,96,84,29.93,29.78,1,0,3,0.59
2013-9-3,77,67,57,70,64,56,99,90,72,29.97,29.81,1,0,5,0.43
2013-9-4,80,64,51,64,57,51,99,80,45,30.06,29.96,2,0,7,0.01
2013-9-5,73,61,50,62,53,47,99,80,44,30.24,29.99,3,0,7,0.01
2013-9-6,73,55,42,51,46,41,98,76,39,30.35,30.22,1,0,4,0.00
2013-9-7,80,60,44,61,51,43,97,76,37,30.22,29.98,1,0,4,0.00
2013-9-8,76,64,47,63,55,-100,97,78,43,30.19,29.90,3,1,13,0.01
2013-9-9,72,55,40,54,46,39,99,76,44,30.35,30.19,1,0,4,0.01
2013-9-10,80,67,53,73,65,52,98,93,78,30.26,30.12,2,0,4,0.03
2013-9-11,96,80,66,79,73,65,99,81,52,30.19,30.06,1,0,4,0.01
2013-9-12,88,74,65,76,70,64,99,88,62,30.09,29.78,2,0,9,0.59
2013-9-13,74,66,57,66,62,51,99,86,66,29.90,29.72,3,0,9,0.62
2013-9-14,64,55,47,54,50,46,97,81,63,30.18,29.90,2,0,9,0.03
2013-9-15,70,50,40,55,45,-100,99,86,48,30.28,30.17,0,0,2,0.00
2013-9-16,68,57,48,58,52,40,97,85,60,30.37,30.13,2,0,10,0.02
2013-9-17,62,49,38,47,40,36,96,73,44,30.53,30.37,3,0,8,0.01
2013-9-18,45,38,36,43,37,35,99,97,96,30.45,30.28,0,0,1,0.00
2013-9-19,81,56,41,57,48,40,99,80,36,30.28,30.15,0,0,2,0.01
2013-9-20,80,57,43,61,51,42,99,83,44,30.19,30.10,1,0,4,0.01
2013-9-21,72,63,50,68,60,49,99,91,79,30.12,29.78,2,0,8,0.04
2013-9-22,68,60,46,67,52,-100,98,80,53,29.99,29.72,2,0,14,1.07
2013-9-23,60,49,40,47,43,39,97,80,54,30.14,29.99,2,0,9,0.01
2013-9-24,68,50,35,46,41,34,99,78,36,30.14,29.95,2,0,9,0.00
2013-9-25,72,54,41,56,48,40,99,81,47,30.06,29.97,3,0,9,0.00
2013-9-26,68,57,46,55,51,45,98,83,57,30.21,30.06,2,0,5,0.00
2013-9-27,62,53,43,54,49,42,99,89,70,30.37,30.21,2,0,5,0.00
2013-9-28,73,54,41,58,49,40,99,86,53,30.44,30.35,2,0,4,0.00
2013-9-29,70,53,43,58,47,-100,99,85,51,30.36,30.19,1,0,3,0.01
2013-9-30,73,53,39,57,48,38,99,87,52,30.21,30.06,0,0,3,0.01
2013-10-1,58,54,48,57,53,47,97,96,95,30.08,30.02,0,0,0,0.01
2013-10-2,80,62,49,64,56,48,99,84,53,30.11,29.99,2,0,6,0.01
2013-10-3,79,57,45,57,49,44,99,80,29,30.21,30.11,1,0,5,0.01
2013-10-4,70,59,50,62,56,49,99,89,69,30.17,30.11,1,0,4,0.07
2013-10-5,76,63,58,67,61,57,99,93,72,30.21,30.14,1,0,2,0.07
2013-10-6,63,59,56,62,58,55,99,98,97,30.27,30.17,1,0,3,1.57
2013-10-7,75,62,56,71,62,54,100,96,84,30.19,29.88,3,0,11,0.27
2013-10-8,66,52,43,54,46,42,99,82,41,30.45,30.03,2,0,9,0.15
2013-10-9,63,50,41,50,44,40,98,83,53,30.55,30.44,2,0,8,0.01
2013-10-10,57,51,41,51,47,40,98,87,78,30.44,30.24,1,0,5,0.00
2013-10-11,70,59,49,60,52,46,91,80,67,30.24,30.16,3,0,7,0.00
2013-10-12,69,57,48,57,51,45,91,81,66,30.45,30.22,3,1,9,0.00
2013-10-13,61,53,44,52,47,-100,97,84,68,30.52,30.43,2,0,6,0.00
2013-10-14,67,50,36,53,45,35,99,86,53,30.49,30.34,1,0,2,0.00
2013-10-15,54,48,44,48,45,42,94,91,80,30.28,30.25,0,0,0,0.00
2013-10-16,61,52,43,53,48,42,98,88,68,30.25,30.01,0,0,2,0.00
2013-10-17,76,62,51,62,57,50,98,87,54,30.02,29.79,2,0,4,0.04
2013-10-18,67,58,41,61,50,40,98,79,44,30.05,29.72,3,0,10,0.07
2013-10-19,66,49,37,50,43,36,99,82,41,30.08,29.84,2,0,9,0.06
2013-10-20,62,49,37,51,39,-100,99,75,38,30.14,29.82,3,0,11,0.10
2013-10-21,68,49,35,43,38,34,99,73,36,30.22,30.10,1,0,8,0.01
2013-10-22,66,49,37,53,43,36,99,83,54,30.06,29.82,2,0,6,0.00
2013-10-23,51,42,31,41,35,30,98,79,49,29.91,29.70,1,0,4,0.00
2013-10-24,53,41,29,37,31,27,97,69,39,30.02,29.79,3,0,11,0.00
2013-10-25,50,41,28,32,30,27,98,65,47,30.28,30.16,4,1,15,0.00
2013-10-26,54,40,27,35,29,26,98,70,38,30.27,29.97,3,0,11,0.01
2013-10-27,56,45,30,38,31,-100,95,62,35,30.19,29.91,4,0,11,0.01
2013-10-28,60,41,28,36,30,-100,97,73,39,30.44,30.19,3,0,13,0.00
2013-10-29,53,40,30,29,26,23,88,59,33,30.54,30.43,2,0,6,0.00
2013-10-30,54,41,29,45,35,25,96,82,62,30.46,30.28,1,0,7,0.00
2013-10-31,60,47,32,58,46,31,98,96,92,30.33,29.90,1,0,6,0.16
2013-11-1,67,62,57,63,59,53,98,88,68,29.90,29.60,4,1,12,0.45
2013-11-2,67,51,37,51,43,36,99,81,42,29.85,29.70,1,0,7,0.03
2013-11-3,48,40,27,42,30,-100,98,71,46,30.53,29.85,4,0,10,0.02
2013-11-4,43,31,24,23,19,15,85,62,34,30.77,30.53,4,0,9,0.00
2013-11-5,52,37,24,38,30,22,94,79,52,30.78,30.59,1,0,6,0.00
2013-11-6,61,47,32,49,41,31,98,82,55,30.60,30.16,2,0,8,0.00
2013-11-7,62,51,33,57,48,31,96,88,78,30.16,29.81,2,0,8,0.15
2013-11-8,48,38,27,34,29,24,97,72,50,30.24,29.98,3,0,14,0.01
2013-11-9,46,34,22,34,26,-100,96,77,49,30.34,30.09,1,0,6,0.01
2013-11-10,58,43,35,40,35,31,96,76,44,30.09,29.86,4,0,16,0.01
2013-11-11,52,45,31,33,30,27,90,56,43,30.24,30.01,4,1,20,0.01
2013-11-12,49,34,26,37,23,17,90,65,53,30.31,30.00,4,1,16,0.04
2013-11-13,37,28,21,19,15,11,84,60,37,30.41,30.29,4,1,9,0.02
2013-11-14,51,38,26,23,19,17,73,49,28,30.29,30.18,2,0,6,0.00
2013-11-15,60,52,26,25,21,19,84,32,20,30.30,30.22,3,1,6,0.00
2013-11-16,62,50,36,40,33,-100,89,59,36,30.40,30.32,1,0,9,0.00
2013-11-17,53,46,32,51,45,31,98,95,87,30.38,29.91,0,0,2,0.06
2013-11-18,64,56,47,61,44,30,99,66,34,29.91,29.65,3,1,12,0.20
2013-11-19,45,38,25,31,24,20,82,59,44,30.41,29.81,5,1,20,0.01
2013-11-20,40,30,19,20,16,11,90,59,30,30.71,30.41,3,0,7,0.00
2013-11-21,47,32,15,34,24,13,95,75,42,30.73,30.49,1,0,4,0.00
2013-11-22,51,43,38,48,41,34,97,93,85,30.47,29.97,0,0,5,0.13
2013-11-23,47,38,28,44,24,-100,98,61,36,30.08,29.94,3,1,15,0.01
2013-11-24,27,22,18,13,6,0,70,49,34,30.37,29.99,6,2,22,0.00
2013-11-25,34,24,15,17,11,6,71,56,39,30.51,30.37,2,0,9,0.00
2013-11-26,39,33,30,31,20,13,95,60,48,30.40,30.27,2,0,6,0.09
2013-12-3,25,24,24,24,23,23,96,96,96,30.08,30.06,0,0,0,0.00
2013-12-4,50,33,22,35,28,21,97,85,54,30.26,30.08,1,0,4,0.01
2013-12-5,53,40,34,53,38,32,99,95,87,30.27,30.03,0,0,2,0.03
2013-12-6,53,43,35,53,42,33,99,93,79,30.23,29.96,2,0,6,0.53
2013-12-7,38,32,26,33,26,-100,96,80,63,30.58,30.17,3,0,9,0.50
2013-12-8,30,25,17,22,19,16,95,78,65,30.69,30.53,2,0,4,0.01
2013-12-9,32,30,25,32,28,21,98,95,75,30.53,30.01,3,0,5,0.00
2013-12-10,32,29,18,32,28,16,98,96,91,30.12,29.91,0,0,1,0.00
2013-12-11,29,23,13,22,19,11,97,84,73,30.34,30.14,1,0,6,0.00
2013-12-12,24,15,5,16,10,3,95,81,54,30.40,30.24,2,0,9,0.00
2013-12-13,31,22,8,18,14,5,90,70,55,30.45,30.13,3,1,15,0.00
2013-12-14,21,14,12,14,9,-100,92,82,66,30.64,30.11,4,1,9,0.00
2013-12-15,35,26,15,31,24,13,96,92,81,30.11,29.58,5,1,10,0.00
2013-12-16,29,23,15,21,12,7,92,64,44,30.21,29.93,3,0,8,0.00
2013-12-17,17,11,-4,15,8,-7,91,89,86,30.32,30.02,2,0,7,0.00
2013-12-18,33,24,14,23,19,12,93,82,64,30.12,30.00,2,0,12,0.00
2013-12-19,45,31,19,28,23,17,94,72,47,30.21,30.05,3,1,9,0.06
2013-12-20,53,37,25,34,30,24,96,77,45,30.19,30.02,3,0,10,0.20
2013-12-21,45,40,38,40,28,-100,83,71,64,30.06,30.00,1,0,3,0.20
2013-12-22,64,60,54,61,57,50,99,90,81,30.00,29.85,3,1,9,0.01
2013-12-23,54,45,35,54,43,30,99,95,81,30.22,30.00,3,0,9,0.86
2013-12-24,37,31,22,30,21,11,81,67,49,30.35,30.15,3,0,9,0.02
2013-12-25,25,19,13,13,7,4,80,62,41,30.59,30.35,3,0,11,0.00
2013-12-26,32,23,16,27,18,11,95,79,69,30.53,30.19,1,0,8,0.00
2013-12-27,36,22,12,23,17,10,96,82,56,30.40,30.30,1,0,9,0.01
2013-12-28,48,36,18,29,22,-100,97,65,45,30.33,30.11,3,1,10,0.01
2013-12-29,39,35,29,38,34,27,97,95,87,30.10,29.53,6,1,16,1.05
2013-12-30,35,28,15,34,22,7,98,81,60,30.27,29.69,2,0,11,0.47
2013-12-31,27,17,9,17,11,6,93,76,56,30.30,30.11,2,0,6,0.00
2014-1-1,30,22,9,19,12,7,93,68,40,30.46,30.30,2,0,6,0.00
2014-1-2,22,15,7,19,13,3,92,89,85,30.40,29.85,7,2,14,0.00